createdAt,value
2018-04-10T00:00:40.607Z,15.91
2018-04-10T00:03:08.069Z,15.87
2018-04-10T00:05:35.499Z,15.86
2018-04-10T00:08:02.967Z,15.86
2018-04-10T00:10:30.403Z,15.93
2018-04-10T00:12:57.853Z,15.92
2018-04-10T00:15:25.322Z,15.96
2018-04-10T00:17:52.803Z,15.97
2018-04-10T00:20:20.287Z,15.94
2018-04-10T00:22:47.730Z,15.81
2018-04-10T00:25:15.180Z,15.72
2018-04-10T00:27:42.625Z,15.71
2018-04-10T00:30:10.076Z,15.64
2018-04-10T00:32:37.542Z,15.67
2018-04-10T00:35:04.992Z,15.63
2018-04-10T00:37:32.442Z,15.66
2018-04-10T00:39:59.881Z,15.64
2018-04-10T00:42:27.343Z,15.62
2018-04-10T00:44:54.767Z,15.54
2018-04-10T00:47:22.234Z,15.48
2018-04-10T00:49:49.667Z,15.46
2018-04-10T00:52:17.131Z,15.45
2018-04-10T00:54:44.594Z,15.49
2018-04-10T00:57:12.055Z,15.46
2018-04-10T00:59:39.511Z,15.44
2018-04-10T01:02:06.971Z,15.44
2018-04-10T01:04:34.434Z,15.39
2018-04-10T01:07:01.902Z,15.40
2018-04-10T01:09:29.366Z,15.32
2018-04-10T01:11:56.826Z,15.37
2018-04-10T01:14:24.276Z,15.26
2018-04-10T01:16:51.736Z,15.20
2018-04-10T01:19:19.205Z,15.23
2018-04-10T01:21:46.663Z,15.20
2018-04-10T01:24:14.139Z,15.15
2018-04-10T01:26:41.594Z,15.18
2018-04-10T01:29:09.058Z,15.14
2018-04-10T01:31:36.512Z,15.06
2018-04-10T01:34:03.948Z,15.06
2018-04-10T01:36:31.405Z,15.06
2018-04-10T01:38:58.830Z,15.08
2018-04-10T01:41:26.279Z,14.99
2018-04-10T01:43:53.717Z,14.97
2018-04-10T01:46:21.183Z,14.88
2018-04-10T01:48:48.605Z,14.92
2018-04-10T01:51:16.050Z,14.91
2018-04-10T01:53:43.495Z,14.91
2018-04-10T01:56:10.950Z,14.94
2018-04-10T01:58:38.381Z,14.84
2018-04-10T02:01:05.867Z,14.79
2018-04-10T02:03:33.311Z,14.83
2018-04-10T02:06:00.736Z,14.82
2018-04-10T02:08:28.248Z,14.80
2018-04-10T02:10:55.674Z,14.83
2018-04-10T02:13:23.120Z,14.80
2018-04-10T02:15:50.544Z,14.83
2018-04-10T02:18:18.002Z,14.87
2018-04-10T02:20:45.496Z,14.83
2018-04-10T02:23:12.924Z,14.84
2018-04-10T02:25:40.370Z,14.79
2018-04-10T02:28:07.824Z,14.79
2018-04-10T02:30:35.337Z,14.80
2018-04-10T02:33:02.782Z,14.79
2018-04-10T02:35:30.218Z,14.82
2018-04-10T02:37:57.687Z,14.86
2018-04-10T02:40:25.122Z,14.83
2018-04-10T02:42:52.570Z,14.81
2018-04-10T02:45:20.049Z,14.86
2018-04-10T02:47:47.488Z,14.81
2018-04-10T02:50:14.922Z,14.84
2018-04-10T02:52:42.367Z,14.88
2018-04-10T02:55:09.797Z,14.88
2018-04-10T02:57:37.310Z,14.87
2018-04-10T03:00:04.751Z,14.88
2018-04-10T03:02:32.197Z,14.88
2018-04-10T03:04:59.721Z,14.86
2018-04-10T03:07:27.175Z,14.86
2018-04-10T03:09:54.617Z,14.87
2018-04-10T03:12:22.042Z,14.85
2018-04-10T03:14:49.487Z,14.81
2018-04-10T03:17:16.916Z,14.80
2018-04-10T03:19:44.384Z,14.82
2018-04-10T03:22:11.815Z,14.73
2018-04-10T03:24:39.280Z,14.74
2018-04-10T03:27:06.733Z,14.75
2018-04-10T03:29:34.164Z,14.81
2018-04-10T03:32:01.648Z,14.79
2018-04-10T03:34:29.167Z,14.81
2018-04-10T03:36:56.605Z,14.75
2018-04-10T03:39:24.051Z,14.80
2018-04-10T03:41:51.516Z,14.83
2018-04-10T03:44:18.954Z,14.84
2018-04-10T03:46:46.395Z,14.76
2018-04-10T03:49:13.833Z,14.71
2018-04-10T03:51:41.370Z,14.67
2018-04-10T03:54:08.894Z,14.66
2018-04-10T03:56:36.355Z,14.54
2018-04-10T03:59:03.857Z,14.32
2018-04-10T04:01:31.297Z,14.09
2018-04-10T04:03:58.761Z,13.88
2018-04-10T04:06:27.076Z,13.68
2018-04-10T04:08:54.560Z,13.63
2018-04-10T04:11:21.987Z,13.58
2018-04-10T04:13:49.468Z,13.31
2018-04-10T04:16:28.949Z,13.27
2018-04-10T04:19:08.166Z,13.26
2018-04-10T04:24:37.041Z,13.11
2018-04-10T04:27:04.482Z,12.99
2018-04-10T04:29:31.947Z,13.00
2018-04-10T04:31:59.369Z,13.04
2018-04-10T04:34:26.863Z,13.05
2018-04-10T04:36:54.299Z,13.09
2018-04-10T04:39:21.751Z,13.21
2018-04-10T04:41:49.452Z,13.33
2018-04-10T04:44:16.918Z,13.39
2018-04-10T04:46:44.416Z,13.38
2018-04-10T04:49:11.864Z,13.43
2018-04-10T04:51:39.314Z,13.47
2018-04-10T04:54:06.844Z,13.49
2018-04-10T04:56:34.328Z,13.53
2018-04-10T04:59:02.605Z,13.58
2018-04-10T05:01:30.142Z,13.60
2018-04-10T05:03:57.604Z,13.57
2018-04-10T05:06:25.089Z,13.57
2018-04-10T05:08:52.526Z,13.66
2018-04-10T05:11:19.983Z,13.73
2018-04-10T05:13:47.428Z,13.75
2018-04-10T05:16:14.910Z,13.74
2018-04-10T05:18:42.427Z,13.85
2018-04-10T05:21:09.972Z,13.85
2018-04-10T05:23:38.049Z,13.89
2018-04-10T05:26:05.556Z,13.84
2018-04-10T05:28:33.055Z,13.93
2018-04-10T05:31:00.560Z,14.01
2018-04-10T05:33:27.961Z,14.04
2018-04-10T05:35:55.790Z,14.04
2018-04-10T05:38:23.224Z,14.06
2018-04-10T05:40:50.692Z,13.94
2018-04-10T05:43:18.147Z,13.90
2018-04-10T05:45:45.584Z,13.96
2018-04-10T05:48:13.064Z,14.07
2018-04-10T05:50:40.490Z,14.17
2018-04-10T05:53:07.980Z,14.36
2018-04-10T05:55:35.377Z,14.49
2018-04-10T05:58:02.923Z,14.59
2018-04-10T06:00:30.355Z,14.54
2018-04-10T06:02:57.819Z,14.63
2018-04-10T06:05:25.245Z,14.75
2018-04-10T06:07:52.748Z,14.64
2018-04-10T06:10:20.217Z,14.60
2018-04-10T06:12:47.686Z,14.58
2018-04-10T06:15:15.164Z,14.60
2018-04-10T06:17:42.670Z,14.78
2018-04-10T06:20:10.118Z,14.79
2018-04-10T06:22:37.614Z,14.86
2018-04-10T06:25:05.073Z,14.92
2018-04-10T06:27:32.612Z,15.04
2018-04-10T06:30:00.067Z,15.31
2018-04-10T06:32:27.519Z,15.66
2018-04-10T06:34:55.469Z,15.88
2018-04-10T06:37:22.954Z,16.10
2018-04-10T06:39:50.407Z,16.30
2018-04-10T06:42:17.871Z,16.51
2018-04-10T06:44:45.306Z,16.71
2018-04-10T06:47:12.791Z,16.86
2018-04-10T06:49:40.261Z,17.07
2018-04-10T06:52:07.742Z,17.60
2018-04-10T06:54:35.175Z,17.93
2018-04-10T06:57:02.644Z,17.99
2018-04-10T06:59:30.101Z,17.76
2018-04-10T07:01:57.581Z,17.30
2018-04-10T07:04:25.007Z,17.09
2018-04-10T07:06:52.464Z,16.93
2018-04-10T07:09:19.943Z,17.03
2018-04-10T07:11:47.379Z,17.07
2018-04-10T07:14:14.828Z,17.19
2018-04-10T07:16:46.521Z,17.21
2018-04-10T07:19:13.988Z,17.16
2018-04-10T07:21:41.428Z,17.02
2018-04-10T07:24:08.988Z,16.99
2018-04-10T07:26:36.589Z,17.12
2018-04-10T07:29:04.303Z,17.21
2018-04-10T07:31:31.837Z,17.10
2018-04-10T07:33:59.571Z,17.18
2018-04-10T07:36:27.108Z,17.40
2018-04-10T07:38:54.548Z,17.44
2018-04-10T07:41:22.001Z,17.49
2018-04-10T07:43:49.474Z,17.72
2018-04-10T07:46:16.925Z,17.61
2018-04-10T07:48:44.388Z,17.74
2018-04-10T07:51:11.847Z,17.88
2018-04-10T07:53:40.111Z,18.23
2018-04-10T07:56:08.017Z,18.48
2018-04-10T07:58:35.468Z,18.60
2018-04-10T08:01:02.926Z,18.78
2018-04-10T08:03:30.458Z,18.75
2018-04-10T08:05:57.967Z,18.81
2018-04-10T08:08:25.527Z,18.70
2018-04-10T08:10:53.110Z,19.01
2018-04-10T08:13:20.537Z,19.09
2018-04-10T08:15:47.976Z,19.33
2018-04-10T08:18:15.467Z,19.48
2018-04-10T08:20:42.916Z,19.61
2018-04-10T08:23:10.367Z,19.95
2018-04-10T08:25:37.798Z,20.08
2018-04-10T08:28:05.327Z,20.47
2018-04-10T08:30:32.751Z,20.69
2018-04-10T08:33:00.208Z,20.67
2018-04-10T08:35:27.646Z,20.65
2018-04-10T08:37:55.120Z,20.94
2018-04-10T08:40:22.527Z,20.85
2018-04-10T08:42:50.075Z,21.16
2018-04-10T08:45:17.495Z,21.32
2018-04-10T08:47:44.923Z,21.41
2018-04-10T08:50:12.408Z,21.57
2018-04-10T08:52:39.865Z,21.87
2018-04-10T08:55:07.323Z,21.76
2018-04-10T08:57:34.751Z,22.10
2018-04-10T09:00:02.198Z,22.18
2018-04-10T09:02:29.673Z,22.02
2018-04-10T09:04:57.595Z,21.89
2018-04-10T09:07:25.035Z,22.19
2018-04-10T09:09:52.499Z,22.53
2018-04-10T09:12:19.923Z,22.74
2018-04-10T09:14:47.399Z,22.96
2018-04-10T09:17:14.867Z,22.91
2018-04-10T09:19:42.293Z,22.78
2018-04-10T09:22:09.735Z,22.39
2018-04-10T09:24:37.164Z,22.48
2018-04-10T09:27:04.632Z,22.85
2018-04-10T09:29:32.056Z,22.99
2018-04-10T09:31:59.506Z,23.13
2018-04-10T09:34:26.939Z,23.17
2018-04-10T09:36:54.395Z,23.57
2018-04-10T09:39:21.822Z,23.55
2018-04-10T09:41:49.290Z,23.44
2018-04-10T09:44:16.719Z,23.59
2018-04-10T09:46:44.173Z,23.62
2018-04-10T09:49:12.199Z,23.26
2018-04-10T09:51:39.682Z,23.49
2018-04-10T09:54:07.097Z,23.37
2018-04-10T09:56:34.572Z,23.32
2018-04-10T09:59:02.007Z,23.58
2018-04-10T10:01:29.473Z,24.01
2018-04-10T10:03:56.908Z,23.79
2018-04-10T10:06:24.392Z,23.80
2018-04-10T10:08:51.837Z,24.00
2018-04-10T10:11:19.295Z,24.11
2018-04-10T10:13:46.713Z,23.61
2018-04-10T10:16:14.173Z,23.64
2018-04-10T10:18:41.635Z,23.95
2018-04-10T10:21:09.088Z,24.05
2018-04-10T10:23:36.539Z,24.26
2018-04-10T10:26:04.061Z,24.18
2018-04-10T10:28:31.519Z,24.62
2018-04-10T10:30:58.944Z,24.60
2018-04-10T10:33:26.424Z,24.48
2018-04-10T10:35:53.830Z,24.84
2018-04-10T10:38:21.274Z,24.60
2018-04-10T10:40:48.701Z,24.58
2018-04-10T10:43:16.153Z,24.75
2018-04-10T10:45:43.610Z,24.54
2018-04-10T10:48:11.039Z,24.83
2018-04-10T10:50:38.533Z,25.17
2018-04-10T10:53:05.964Z,25.60
2018-04-10T10:55:33.440Z,25.72
2018-04-10T10:58:00.929Z,25.35
2018-04-10T11:00:28.362Z,25.20
2018-04-10T11:02:55.803Z,25.58
2018-04-10T11:05:23.313Z,25.59
2018-04-10T11:07:50.795Z,25.41
2018-04-10T11:10:18.199Z,25.06
2018-04-10T11:12:45.664Z,25.29
2018-04-10T11:15:13.091Z,25.14
2018-04-10T11:17:40.623Z,25.18
2018-04-10T11:20:08.099Z,25.32
2018-04-10T11:22:35.521Z,25.56
2018-04-10T11:25:02.988Z,25.07
2018-04-10T11:27:30.474Z,25.26
2018-04-10T11:29:57.949Z,25.52
2018-04-10T11:32:25.377Z,25.16
2018-04-10T11:34:52.805Z,25.22
2018-04-10T11:37:20.265Z,25.16
2018-04-10T11:39:47.719Z,25.31
2018-04-10T11:42:15.154Z,25.07
2018-04-10T11:44:42.618Z,25.22
2018-04-10T11:47:10.079Z,25.18
2018-04-10T11:49:37.529Z,25.41
2018-04-10T11:52:04.963Z,25.25
2018-04-10T11:54:32.451Z,25.23
2018-04-10T11:56:59.904Z,25.25
2018-04-10T11:59:27.361Z,25.41
2018-04-10T12:01:54.806Z,25.52
2018-04-10T12:04:22.283Z,25.77
2018-04-10T12:06:49.776Z,25.83
2018-04-10T12:09:17.235Z,25.75
2018-04-10T12:11:44.710Z,25.72
2018-04-10T12:14:12.153Z,25.95
2018-04-10T12:16:39.625Z,26.04
2018-04-10T12:19:07.090Z,26.41
2018-04-10T12:21:34.539Z,26.26
2018-04-10T12:24:02.068Z,26.47
2018-04-10T12:26:29.541Z,27.15
2018-04-10T12:28:56.966Z,27.95
2018-04-10T12:31:24.449Z,28.78
2018-04-10T12:33:51.877Z,29.48
2018-04-10T12:36:19.385Z,30.24
2018-04-10T12:38:46.801Z,30.98
2018-04-10T12:41:14.272Z,31.77
2018-04-10T12:43:41.714Z,31.63
2018-04-10T12:46:09.177Z,31.98
2018-04-10T12:48:36.612Z,31.88
2018-04-10T12:51:04.109Z,31.99
2018-04-10T12:53:31.560Z,32.01
2018-04-10T12:55:58.997Z,31.87
2018-04-10T12:58:26.447Z,32.86
2018-04-10T13:00:53.878Z,33.36
2018-04-10T13:03:21.343Z,32.11
2018-04-10T13:05:48.838Z,32.11
2018-04-10T13:08:16.312Z,31.82
2018-04-10T13:10:43.777Z,32.19
2018-04-10T13:13:11.230Z,32.13
2018-04-10T13:15:38.648Z,32.01
2018-04-10T13:18:06.133Z,32.67
2018-04-10T13:20:33.594Z,31.60
2018-04-10T13:23:01.071Z,31.39
2018-04-10T13:25:28.508Z,31.21
2018-04-10T13:27:55.982Z,31.20
2018-04-10T13:30:23.419Z,30.10
2018-04-10T13:32:50.849Z,30.82
2018-04-10T13:35:18.317Z,31.79
2018-04-10T13:37:45.751Z,29.93
2018-04-10T13:40:13.208Z,29.41
2018-04-10T13:42:40.655Z,29.11
2018-04-10T13:45:08.147Z,27.76
2018-04-10T13:47:35.589Z,27.57
2018-04-10T13:50:03.056Z,27.65
2018-04-10T13:52:30.487Z,27.48
2018-04-10T13:54:57.972Z,27.57
2018-04-10T13:57:25.447Z,27.29
2018-04-10T13:59:52.875Z,27.12
2018-04-10T14:02:20.334Z,26.79
2018-04-10T14:04:47.760Z,26.89
2018-04-10T14:07:15.226Z,26.74
2018-04-10T14:09:42.687Z,26.48
2018-04-10T14:12:10.187Z,26.57
2018-04-10T14:14:37.621Z,26.57
2018-04-10T14:17:05.078Z,26.13
2018-04-10T14:19:32.526Z,25.96
2018-04-10T14:22:00.132Z,25.34
2018-04-10T14:24:27.611Z,25.44
2018-04-10T14:26:55.865Z,24.78
2018-04-10T14:29:23.341Z,24.71
2018-04-10T14:31:50.779Z,24.60
2018-04-10T14:34:18.231Z,24.57
2018-04-10T14:36:45.681Z,24.55
2018-04-10T14:39:13.161Z,24.44
2018-04-10T14:41:40.604Z,23.87
2018-04-10T14:44:08.210Z,23.87
2018-04-10T14:46:35.699Z,23.51
2018-04-10T14:49:03.159Z,23.69
2018-04-10T14:51:30.601Z,23.63
2018-04-10T14:53:58.046Z,23.37
2018-04-10T14:56:25.486Z,23.43
2018-04-10T14:58:52.912Z,23.41
2018-04-10T15:01:20.450Z,23.28
2018-04-10T15:03:47.927Z,23.10
2018-04-10T15:06:15.468Z,23.16
2018-04-10T15:08:43.319Z,22.65
2018-04-10T15:11:11.133Z,22.63
2018-04-10T15:13:39.514Z,22.52
2018-04-10T15:16:07.689Z,22.50
2018-04-10T15:18:35.154Z,22.48
2018-04-10T15:21:02.726Z,22.29
2018-04-10T15:23:30.184Z,22.14
2018-04-10T15:25:57.650Z,22.09
2018-04-10T15:28:26.449Z,22.14
2018-04-10T15:30:53.926Z,22.06
2018-04-10T15:33:21.384Z,21.53
2018-04-10T15:35:48.832Z,20.59
2018-04-10T15:38:16.289Z,19.34
2018-04-10T15:40:43.746Z,18.98
2018-04-10T15:43:11.240Z,18.48
2018-04-10T15:45:38.675Z,18.15
2018-04-10T15:48:06.163Z,17.93
2018-04-10T15:50:33.587Z,17.85
2018-04-10T15:53:01.058Z,17.61
2018-04-10T15:55:28.488Z,17.54
2018-04-10T15:57:55.967Z,16.93
2018-04-10T16:00:23.479Z,16.75
2018-04-10T16:02:51.221Z,16.14
2018-04-10T16:05:18.682Z,15.30
2018-04-10T16:07:46.174Z,14.92
2018-04-10T16:10:13.777Z,14.69
2018-04-10T16:12:41.286Z,14.57
2018-04-10T16:15:08.812Z,14.14
2018-04-10T16:17:36.285Z,14.40
2018-04-10T16:20:03.730Z,14.73
2018-04-10T16:22:31.755Z,14.80
2018-04-10T16:24:59.231Z,14.87
2018-04-10T16:27:26.742Z,14.39
2018-04-10T16:29:54.191Z,14.21
2018-04-10T16:32:22.371Z,14.46
2018-04-10T16:34:49.829Z,14.51
2018-04-10T16:37:18.251Z,14.22
2018-04-10T16:39:45.691Z,14.12
2018-04-10T16:42:13.132Z,13.96
2018-04-10T16:44:40.586Z,14.27
2018-04-10T16:47:08.029Z,14.42
2018-04-10T16:49:35.524Z,14.45
2018-04-10T16:52:02.958Z,14.38
2018-04-10T16:54:30.504Z,14.22
2018-04-10T16:56:57.933Z,14.16
2018-04-10T16:59:25.452Z,14.08
2018-04-10T17:01:52.957Z,14.23
2018-04-10T17:04:20.396Z,14.28
2018-04-10T17:06:48.145Z,14.14
2018-04-10T17:09:15.578Z,14.07
2018-04-10T17:11:43.067Z,13.84
2018-04-10T17:14:10.513Z,14.02
2018-04-10T17:16:37.951Z,13.91
2018-04-10T17:19:06.456Z,13.90
2018-04-10T17:21:34.020Z,13.96
2018-04-10T17:24:01.538Z,13.79
2018-04-10T17:26:29.000Z,13.82
2018-04-10T17:28:56.457Z,13.60
2018-04-10T17:31:23.906Z,13.61
2018-04-10T17:33:51.367Z,13.80
2018-04-10T17:36:18.799Z,13.86
2018-04-10T17:38:46.279Z,13.83
2018-04-10T17:41:13.809Z,13.58
2018-04-10T17:43:41.301Z,13.51
2018-04-10T17:46:08.733Z,13.34
2018-04-10T17:48:36.190Z,13.43
2018-04-10T17:51:04.762Z,13.38
2018-04-10T17:53:32.787Z,13.48
2018-04-10T17:56:00.316Z,13.48
2018-04-10T17:58:27.785Z,13.38
2018-04-10T18:00:55.275Z,13.45
2018-04-10T18:03:23.053Z,13.41
2018-04-10T18:05:50.738Z,13.40
2018-04-10T18:08:18.185Z,13.67
2018-04-10T18:10:45.624Z,13.50
2018-04-10T18:13:13.152Z,13.53
2018-04-10T18:15:40.602Z,13.40
2018-04-10T18:18:08.133Z,13.25
2018-04-10T18:20:35.590Z,13.12
2018-04-10T18:23:03.063Z,13.10
2018-04-10T18:25:31.340Z,13.20
2018-04-10T18:27:58.867Z,13.40
2018-04-10T18:30:26.374Z,13.27
2018-04-10T18:32:53.968Z,13.32
2018-04-10T18:35:21.429Z,13.53
2018-04-10T18:37:48.914Z,13.33
2018-04-10T18:40:16.387Z,13.15
2018-04-10T18:42:43.860Z,13.19
2018-04-10T18:45:11.317Z,13.13
2018-04-10T18:47:38.750Z,13.22
2018-04-10T18:50:06.228Z,13.24
2018-04-10T18:52:33.687Z,13.43
2018-04-10T18:55:01.142Z,13.49
2018-04-10T18:57:29.094Z,13.54
2018-04-10T18:59:56.573Z,13.72
2018-04-10T19:02:24.006Z,13.49
2018-04-10T19:04:51.485Z,13.28
2018-04-10T19:07:18.953Z,13.52
2018-04-10T19:09:46.422Z,13.55
2018-04-10T19:12:13.851Z,13.61
2018-04-10T19:14:41.314Z,13.71
2018-04-10T19:17:08.797Z,13.51
2018-04-10T19:19:36.238Z,13.66
2018-04-10T19:22:03.727Z,13.88
2018-04-10T19:24:31.341Z,13.84
2018-04-10T19:26:58.837Z,13.84
2018-04-10T19:29:26.284Z,13.71
2018-04-10T19:31:53.733Z,13.68
2018-04-10T19:34:21.173Z,13.74
2018-04-10T19:36:49.395Z,13.66
2018-04-10T19:39:16.823Z,13.82
2018-04-10T19:41:44.357Z,13.81
2018-04-10T19:44:11.802Z,13.74
2018-04-10T19:46:39.279Z,13.94
2018-04-10T19:49:06.712Z,13.88
2018-04-10T19:51:34.154Z,13.89
2018-04-10T19:54:01.617Z,13.89
2018-04-10T19:56:29.068Z,13.91
2018-04-10T19:58:56.533Z,13.89
2018-04-10T20:01:23.984Z,13.76
2018-04-10T20:03:51.517Z,13.84
2018-04-10T20:06:19.036Z,13.82
2018-04-10T20:08:46.741Z,13.75
2018-04-10T20:11:14.234Z,13.63
2018-04-10T20:13:41.709Z,13.39
2018-04-10T20:16:09.224Z,13.46
2018-04-10T20:18:36.739Z,13.31
2018-04-10T20:21:04.439Z,13.28
2018-04-10T20:23:31.866Z,13.36
2018-04-10T20:25:59.378Z,13.47
2018-04-10T20:28:26.939Z,13.50
2018-04-10T20:30:54.619Z,13.52
2018-04-10T20:33:23.045Z,13.44
2018-04-10T20:35:50.570Z,13.36
2018-04-10T20:38:18.034Z,13.31
2018-04-10T20:40:46.191Z,13.37
2018-04-10T20:43:13.638Z,13.41
2018-04-10T20:45:41.836Z,13.43
2018-04-10T20:48:09.273Z,13.38
2018-04-10T20:50:36.734Z,13.40
2018-04-10T20:53:04.159Z,13.36
2018-04-10T20:55:31.622Z,13.31
2018-04-10T20:57:59.076Z,13.37
2018-04-10T21:00:26.586Z,13.50
2018-04-10T21:02:54.105Z,13.48
2018-04-10T21:05:21.554Z,13.46
2018-04-10T21:07:49.062Z,13.47
2018-04-10T21:10:16.513Z,13.48
2018-04-10T21:12:43.973Z,13.47
2018-04-10T21:15:11.392Z,13.46
2018-04-10T21:17:39.900Z,13.32
2018-04-10T21:20:07.366Z,12.98
2018-04-10T21:22:34.867Z,13.05
2018-04-10T21:25:02.296Z,13.03
2018-04-10T21:27:29.749Z,13.06
2018-04-10T21:29:57.258Z,13.06
2018-04-10T21:32:24.717Z,13.04
2018-04-10T21:34:52.190Z,12.95
2018-04-10T21:37:19.632Z,12.85
2018-04-10T21:39:47.133Z,12.95
2018-04-10T21:42:14.620Z,12.91
2018-04-10T21:44:45.890Z,12.97
2018-04-10T21:47:13.915Z,13.01
2018-04-10T21:49:41.466Z,12.97
2018-04-10T21:52:09.042Z,12.95
2018-04-10T21:54:36.488Z,12.91
2018-04-10T21:57:03.912Z,12.89
2018-04-10T21:59:31.349Z,13.00
2018-04-10T22:01:58.890Z,12.95
2018-04-10T22:04:26.349Z,12.86
2018-04-10T22:06:53.775Z,12.75
2018-04-10T22:09:21.229Z,12.72
2018-04-10T22:11:48.683Z,12.67
2018-04-10T22:14:16.095Z,12.65
2018-04-10T22:16:43.569Z,12.55
2018-04-10T22:19:11.047Z,12.54
2018-04-10T22:21:38.571Z,12.25
2018-04-10T22:24:05.989Z,12.32
2018-04-10T22:26:33.449Z,12.28
2018-04-10T22:29:00.870Z,12.30
2018-04-10T22:31:28.356Z,12.28
2018-04-10T22:33:55.794Z,12.27
2018-04-10T22:36:23.255Z,12.22
2018-04-10T22:38:50.669Z,12.05
2018-04-10T22:41:18.142Z,12.17
2018-04-10T22:43:45.561Z,12.25
2018-04-10T22:46:12.988Z,12.32
2018-04-10T22:48:40.431Z,12.39
2018-04-10T22:51:08.527Z,12.47
2018-04-10T22:53:35.966Z,12.47
2018-04-10T22:56:03.409Z,12.53
2018-04-10T22:58:30.851Z,12.51
2018-04-10T23:00:58.304Z,12.47
2018-04-10T23:03:25.823Z,12.48
2018-04-10T23:05:53.193Z,12.39
2018-04-10T23:08:20.798Z,12.38
2018-04-10T23:10:48.265Z,12.42
2018-04-10T23:13:15.737Z,12.36
2018-04-10T23:15:43.166Z,12.32
2018-04-10T23:18:10.640Z,12.29
2018-04-10T23:20:38.759Z,12.22
2018-04-10T23:23:06.179Z,12.17
2018-04-10T23:25:33.637Z,11.98
2018-04-10T23:28:01.089Z,11.97
2018-04-10T23:30:28.590Z,12.07
2018-04-10T23:32:56.018Z,12.11
2018-04-10T23:35:23.483Z,12.11
2018-04-10T23:37:50.901Z,12.12
2018-04-10T23:40:18.365Z,12.13
2018-04-10T23:42:45.899Z,12.08
2018-04-10T23:45:13.359Z,12.02
2018-04-10T23:47:41.094Z,11.92
2018-04-10T23:50:09.002Z,11.82
2018-04-10T23:52:36.456Z,11.74
2018-04-10T23:55:03.876Z,11.72
2018-04-10T23:57:31.332Z,11.71
2018-04-10T23:59:58.799Z,11.66
